Time;durP1;ratioP1;P1;durP2;ratioP2;P2;SDS_P1;SDS_P2;PMS_P1;PMS_P2;Temp;Humidity;BMP_temperature;BMP_pressure;BME280_temperature;BME280_humidity;BME280_pressure;Samples;Min_cycle;Max_cycle;Signal;HPM_P1;HPM_P2
2022/06/30 00:02:50;;;;;;;8.68;3.58;;;;;;;19.61;78.36;100086.75;2181026;81;28260;-66
2022/06/30 00:05:52;;;;;;;39.35;4.72;;;;;;;19.39;78.49;100099.08;2181078;81;28678;-70
2022/06/30 00:08:53;;;;;;;6.65;2.92;;;;;;;19.15;81.06;100123.86;2180991;81;31001;-67
2022/06/30 00:11:55;;;;;;;6.92;4.28;;;;;;;18.93;82.12;100175.09;2180649;80;33832;-62
2022/06/30 00:14:59;;;;;;;6.70;3.52;;;;;;;18.81;81.78;100143.09;2181147;81;29028;-62
2022/06/30 00:18:02;;;;;;;4.35;3.10;;;;;;;18.79;82.08;100083.49;2181491;81;27739;-74
2022/06/30 00:21:04;;;;;;;41.15;4.25;;;;;;;18.74;82.03;100031.50;2180995;80;29907;-73
2022/06/30 00:24:06;;;;;;;6.10;3.27;;;;;;;18.70;82.29;100009.69;2169663;80;31650;-80
2022/06/30 00:27:08;;;;;;;14.15;4.35;;;;;;;18.53;83.54;100008.48;2216726;80;33003;-83
2022/06/30 00:30:11;;;;;;;8.10;4.45;;;;;;;18.41;82.87;100037.54;2217101;80;29284;-62
2022/06/30 00:33:13;;;;;;;7.17;3.98;;;;;;;18.41;83.60;100050.22;2217295;80;27743;-62
2022/06/30 00:36:16;;;;;;;7.87;4.40;;;;;;;18.34;83.78;100042.64;2217352;80;28669;-61
2022/06/30 00:39:18;;;;;;;6.87;4.10;;;;;;;18.31;83.62;100023.91;2217000;80;30992;-61
2022/06/30 00:42:20;;;;;;;7.65;4.80;;;;;;;18.31;83.93;100031.17;2201628;80;33001;-61
2022/06/30 00:45:22;;;;;;;7.25;4.58;;;;;;;18.31;84.22;100051.03;2188344;80;29722;-62
2022/06/30 00:48:24;;;;;;;8.63;4.37;;;;;;;18.33;84.56;100044.98;2188085;80;27721;-62
2022/06/30 00:51:26;;;;;;;9.45;4.92;;;;;;;18.36;84.79;100043.85;2187881;81;29560;-62
2022/06/30 00:54:28;;;;;;;7.75;4.35;;;;;;;18.38;85.08;100049.49;2188167;81;31844;-62
2022/06/30 00:57:31;;;;;;;9.30;4.35;;;;;;;18.38;85.10;100065.77;2188144;81;32330;-62
2022/06/30 01:00:36;;;;;;;5.58;4.10;;;;;;;18.41;85.38;100086.84;2188316;80;29849;-62
2022/06/30 01:03:39;;;;;;;7.42;4.22;;;;;;;18.42;85.49;100085.84;2188506;81;27640;-62
2022/06/30 01:06:44;;;;;;;5.75;4.25;;;;;;;18.38;85.50;100096.95;2188598;81;28675;-62
2022/06/30 01:13:06;;;;;;;6.97;4.33;;;;;;;18.33;85.93;100134.96;2210528;80;33952;-62
2022/06/30 01:16:08;;;;;;;6.42;4.25;;;;;;;18.34;86.21;100162.45;2218053;80;29012;-62
2022/06/30 01:19:10;;;;;;;6.85;5.05;;;;;;;18.33;86.34;100167.03;2218158;80;27657;-62
2022/06/30 01:22:12;;;;;;;6.03;4.30;;;;;;;18.37;86.61;100201.52;2193583;80;29648;-63
2022/06/30 01:25:13;;;;;;;11.33;5.33;;;;;;;18.42;86.85;100233.67;2217936;80;31001;-62
2022/06/30 01:28:15;;;;;;;8.15;5.33;;;;;;;18.45;87.09;100247.84;2217830;80;33040;-62
2022/06/30 01:31:18;;;;;;;18.75;6.58;;;;;;;18.49;87.09;100255.24;2217733;80;28995;-63
2022/06/30 01:34:20;;;;;;;105.70;8.43;;;;;;;18.49;87.20;100173.34;2217906;80;27820;-64
2022/06/30 01:37:21;;;;;;;79.30;8.40;;;;;;;18.46;87.66;100155.97;2217922;80;28643;-63
2022/06/30 01:40:26;;;;;;;25.43;6.22;;;;;;;18.45;89.16;100131.19;2217362;80;31075;-60
2022/06/30 01:43:28;;;;;;;11.53;6.45;;;;;;;18.34;92.64;100107.73;2185385;80;33645;-59
2022/06/30 01:46:30;;;;;;;10.68;5.53;;;;;;;18.29;94.11;100092.34;2181458;81;29085;-60
2022/06/30 01:49:31;;;;;;;10.30;5.80;;;;;;;18.21;94.48;100078.08;2183058;80;27650;-60
2022/06/30 01:52:33;;;;;;;7.78;5.62;;;;;;;18.11;94.48;100064.96;2181655;81;28815;-60
2022/06/30 01:55:35;;;;;;;7.45;5.35;;;;;;;18.05;95.03;100048.70;2181465;81;31375;-60
2022/06/30 01:58:36;;;;;;;9.08;5.80;;;;;;;18.01;95.08;100038.25;2181207;81;32938;-60
2022/06/30 02:01:38;;;;;;;6.97;5.92;;;;;;;17.97;95.65;100040.82;2181361;81;29102;-61
2022/06/30 02:04:48;;;;;;;7.97;5.80;;;;;;;17.92;96.11;100041.22;2181381;81;27647;-60
2022/06/30 02:07:51;;;;;;;12.73;6.75;;;;;;;17.91;96.91;100024.59;2181426;81;29855;-61
2022/06/30 02:10:55;;;;;;;7.10;5.83;;;;;;;17.89;96.40;100014.38;2181629;80;31754;-61
2022/06/30 02:13:56;;;;;;;7.60;5.55;;;;;;;17.88;96.28;99999.98;2217109;80;33322;-61
2022/06/30 02:16:58;;;;;;;11.30;6.10;;;;;;;17.85;96.09;99999.39;2217380;80;29082;-60
2022/06/30 02:20:00;;;;;;;6.25;5.47;;;;;;;17.84;95.71;100004.44;2217496;80;27668;-61
2022/06/30 02:23:03;;;;;;;7.42;5.65;;;;;;;17.85;95.84;99995.33;2217350;80;29480;-63
2022/06/30 02:26:05;;;;;;;10.30;5.90;;;;;;;17.83;96.23;99991.88;2217129;80;31021;-64
2022/06/30 02:29:06;;;;;;;11.22;5.90;;;;;;;17.79;95.59;99965.52;2217081;80;33868;-68
2022/06/30 02:32:08;;;;;;;7.33;5.62;;;;;;;17.77;96.05;99967.52;2217343;80;29086;-62
2022/06/30 02:35:12;;;;;;;8.33;6.12;;;;;;;17.76;96.45;99968.52;2217141;80;28115;-62
2022/06/30 02:38:13;;;;;;;9.00;6.12;;;;;;;17.78;96.40;99963.83;2217043;80;28692;-67
2022/06/30 02:41:14;;;;;;;8.78;6.80;;;;;;;17.79;96.64;99964.16;2211828;80;31356;-65
2022/06/30 02:44:17;;;;;;;8.60;6.53;;;;;;;17.79;96.35;99939.78;2191390;81;34212;-63
2022/06/30 02:47:33;;;;;;;9.73;6.65;;;;;;;17.80;96.54;99925.75;2176190;81;27698;-62
2022/06/30 02:50:34;;;;;;;7.42;6.58;;;;;;;17.79;97.18;99916.74;2191179;80;27662;-64
2022/06/30 02:53:36;;;;;;;21.97;7.05;;;;;;;17.80;96.99;99912.20;2191970;81;28718;-66
2022/06/30 02:56:37;;;;;;;7.83;6.45;;;;;;;17.80;97.78;99902.20;2191917;80;30980;-65
2022/06/30 02:59:38;;;;;;;8.75;6.53;;;;;;;17.82;96.63;99890.74;2191740;80;32343;-65
2022/06/30 03:02:40;;;;;;;6.83;6.10;;;;;;;17.84;97.13;99883.86;2191678;81;29034;-64
2022/06/30 03:05:41;;;;;;;6.67;5.40;;;;;;;17.85;96.70;99892.34;2191559;80;27727;-63
2022/06/30 03:08:43;;;;;;;7.45;5.00;;;;;;;17.85;96.50;99929.77;2191659;81;28646;-68
2022/06/30 03:11:44;;;;;;;5.62;5.03;;;;;;;17.85;95.99;99936.55;2202489;80;31047;-64
2022/06/30 03:14:47;;;;;;;5.37;4.92;;;;;;;17.87;95.52;99968.95;2221204;80;33041;-69
2022/06/30 03:17:48;;;;;;;5.40;4.90;;;;;;;17.89;95.42;99984.08;2221183;80;29126;-67
2022/06/30 03:20:50;;;;;;;6.05;4.62;;;;;;;17.94;95.43;99978.77;2221198;80;27657;-62
2022/06/30 03:23:52;;;;;;;6.00;5.22;;;;;;;17.96;95.26;99987.13;2220767;80;29521;-62
2022/06/30 03:26:53;;;;;;;6.92;5.20;;;;;;;18.01;95.32;100003.89;2220583;80;31876;-64
2022/06/30 03:29:55;;;;;;;6.50;5.42;;;;;;;18.08;95.38;99998.80;2220983;80;33150;-66
2022/06/30 03:32:56;;;;;;;6.12;4.78;;;;;;;18.13;95.24;100014.15;2220713;80;29579;-64
2022/06/30 03:35:58;;;;;;;5.62;4.72;;;;;;;18.17;95.28;100031.03;2221241;80;27733;-63
2022/06/30 03:38:59;;;;;;;5.78;5.05;;;;;;;18.21;95.15;100046.02;2221073;80;28651;-65
2022/06/30 03:42:01;;;;;;;7.55;5.28;;;;;;;18.24;95.23;100035.43;2202569;80;30982;-66
2022/06/30 03:45:03;;;;;;;7.60;5.42;;;;;;;18.27;95.07;100041.44;2181528;81;33923;-66
2022/06/30 03:48:06;;;;;;;6.75;5.40;;;;;;;18.31;95.22;100048.32;2181250;81;29031;-64
2022/06/30 03:51:08;;;;;;;5.72;4.95;;;;;;;18.36;95.26;100058.77;2181499;81;27685;-62
2022/06/30 03:54:10;;;;;;;7.00;5.87;;;;;;;18.40;95.23;100058.88;2181321;81;29459;-63
2022/06/30 03:57:12;;;;;;;7.00;5.70;;;;;;;18.43;95.23;100057.25;2181308;81;31408;-67
2022/06/30 04:00:14;;;;;;;6.62;5.28;;;;;;;18.46;95.27;100062.90;2181284;81;32951;-69
2022/06/30 04:03:15;;;;;;;9.33;6.05;;;;;;;18.48;95.31;100057.69;2181449;81;29726;-65
2022/06/30 04:06:17;;;;;;;7.72;6.22;;;;;;;18.52;95.22;100078.66;2180958;81;27538;-61
2022/06/30 04:09:18;;;;;;;7.40;6.70;;;;;;;18.54;95.35;100080.71;2181207;81;28641;-61
2022/06/30 04:12:19;;;;;;;7.53;6.40;;;;;;;18.60;95.52;100077.47;2188743;80;31813;-66
2022/06/30 04:15:21;;;;;;;9.98;6.22;;;;;;;18.65;95.53;100069.80;2181353;81;33704;-62
2022/06/30 04:18:24;;;;;;;6.83;6.05;;;;;;;18.71;95.63;100059.38;2180964;81;29535;-68
2022/06/30 04:21:27;;;;;;;8.10;6.25;;;;;;;18.80;95.68;100068.09;2180329;81;27670;-62
2022/06/30 04:24:29;;;;;;;7.55;6.58;;;;;;;18.90;95.85;100070.34;2180992;81;29916;-66
2022/06/30 04:27:32;;;;;;;7.25;6.17;;;;;;;18.97;95.79;100066.12;2180896;81;31808;-68
2022/06/30 04:33:54;;;;;;;7.83;6.30;;;;;;;19.09;95.51;100051.96;2181069;80;29848;-70
2022/06/30 04:36:58;;;;;;;6.62;6.03;;;;;;;19.15;95.68;100049.19;2181360;81;28157;-69
2022/06/30 04:43:32;;;;;;;8.80;7.28;;;;;;;19.14;94.96;100050.19;2143526;82;31436;-63
2022/06/30 04:46:42;;;;;;;8.45;7.62;;;;;;;19.16;95.46;100056.34;2142851;82;30575;-62
2022/06/30 04:49:54;;;;;;;10.58;8.53;;;;;;;19.32;96.15;100063.10;2143679;82;29077;-65
2022/06/30 04:52:58;;;;;;;9.23;8.20;;;;;;;19.50;96.47;100060.07;2143575;82;27641;-62
2022/06/30 04:56:03;;;;;;;11.55;9.85;;;;;;;19.65;96.45;100066.45;2144023;82;28771;-70
2022/06/30 04:59:06;;;;;;;13.68;10.78;;;;;;;20.02;97.60;100073.95;2143948;83;31024;-65
2022/06/30 05:02:09;;;;;;;13.30;11.90;;;;;;;20.56;99.03;100068.00;2143446;83;33832;-65
2022/06/30 05:05:15;;;;;;;12.18;10.88;;;;;;;21.11;99.37;100074.06;2143621;82;29108;-61
2022/06/30 05:08:22;;;;;;;12.40;11.08;;;;;;;21.48;98.19;100070.43;2143815;82;27636;-61
2022/06/30 05:11:30;;;;;;;11.55;10.32;;;;;;;21.83;97.36;100061.97;2176632;80;28664;-61
2022/06/30 05:14:40;;;;;;;11.75;9.05;;;;;;;22.72;99.84;100059.78;2214045;80;28559;-61
2022/06/30 05:17:49;;;;;;;9.53;7.90;;;;;;;23.56;98.50;100060.02;2216626;80;33016;-61
2022/06/30 05:20:54;;;;;;;8.88;7.92;;;;;;;24.08;96.45;100068.50;2214558;80;27712;-61
2022/06/30 05:27:17;;;;;;;7.20;5.92;;;;;;;23.79;91.24;100048.42;2180762;81;29037;-60
2022/06/30 05:33:40;;;;;;;7.28;6.58;;;;;;;23.33;90.23;100045.59;2097226;84;32995;-58
2022/06/30 05:36:42;;;;;;;7.35;6.67;;;;;;;23.46;91.17;100047.86;2066398;86;28710;-59
2022/06/30 05:39:43;;;;;;;8.88;5.80;;;;;;;23.60;91.34;100046.86;2066617;86;27666;-61
2022/06/30 05:42:45;;;;;;;6.85;6.12;;;;;;;23.62;90.55;100040.72;2128201;83;29566;-60
2022/06/30 05:45:50;;;;;;;10.35;6.08;;;;;;;23.51;89.64;100038.62;2133468;83;31547;-60
2022/06/30 05:48:50;;;;;;;7.80;6.58;;;;;;;23.40;89.59;100033.48;2133722;83;34255;-61
2022/06/30 05:51:52;;;;;;;7.17;5.70;;;;;;;23.38;90.37;100036.88;2133832;83;29845;-61
2022/06/30 05:54:56;;;;;;;5.80;5.25;;;;;;;23.77;91.57;100039.52;2055824;86;27734;-63
2022/06/30 05:58:05;;;;;;;7.85;5.08;;;;;;;24.01;90.05;100047.45;2097813;84;29460;-60
2022/06/30 06:01:05;;;;;;;6.08;4.95;;;;;;;24.21;89.52;100041.98;2054760;86;32212;-61
2022/06/30 06:04:06;;;;;;;5.45;4.95;;;;;;;24.45;90.04;100045.71;2055803;86;33758;-61
2022/06/30 06:07:08;;;;;;;7.85;5.08;;;;;;;24.84;90.16;100050.96;2055731;86;29087;-62
2022/06/30 06:10:13;;;;;;;4.62;4.22;;;;;;;25.19;89.67;100048.78;2056141;86;27725;-61
2022/06/30 06:13:14;;;;;;;4.85;4.40;;;;;;;25.38;88.71;100043.89;2055915;86;29738;-61
2022/06/30 06:16:16;;;;;;;5.42;4.17;;;;;;;25.79;88.48;100045.06;2055801;86;31060;-63
2022/06/30 06:19:17;;;;;;;4.80;4.30;;;;;;;26.32;88.91;100035.55;2055836;86;33583;-61
2022/06/30 06:22:18;;;;;;;9.25;4.30;;;;;;;26.97;87.80;100036.45;2054721;86;29015;-61
2022/06/30 06:25:20;;;;;;;7.20;3.98;;;;;;;27.57;86.63;100036.36;2069465;86;27745;-62
2022/06/30 06:31:42;;;;;;;4.08;3.67;;;;;;;28.57;85.14;100028.18;2060184;86;31898;-61
2022/06/30 06:34:43;;;;;;;5.70;4.42;;;;;;;29.05;84.25;100032.09;2060329;86;33043;-61
2022/06/30 06:37:46;;;;;;;7.03;4.30;;;;;;;29.21;81.69;100030.36;2036260;86;27714;-60
2022/06/30 06:40:48;;;;;;;6.12;4.50;;;;;;;29.56;79.66;100031.69;2049910;86;27668;-61
2022/06/30 06:43:51;;;;;;;5.28;4.08;;;;;;;30.16;77.95;100037.02;2058336;86;28812;-61
2022/06/30 06:46:52;;;;;;;5.62;3.80;;;;;;;30.87;76.37;100047.89;2067090;86;31195;-62
2022/06/30 06:49:56;;;;;;;7.58;3.95;;;;;;;31.44;74.38;100049.24;2066802;86;33208;-60
2022/06/30 06:52:58;;;;;;;4.08;3.52;;;;;;;31.84;72.28;100050.96;2067308;86;29024;-62
2022/06/30 06:55:59;;;;;;;5.53;4.22;;;;;;;31.97;70.78;100055.02;2067273;86;27725;-60
2022/06/30 06:59:00;;;;;;;7.55;4.90;;;;;;;32.40;68.06;100039.58;2066998;86;28996;-77
2022/06/30 07:02:02;;;;;;;7.83;4.72;;;;;;;32.75;67.83;100045.95;2064958;86;30870;-72
2022/06/30 07:05:05;;;;;;;6.92;4.22;;;;;;;32.99;66.26;100040.06;2065714;86;32963;-74
2022/06/30 07:08:06;;;;;;;9.95;4.83;;;;;;;33.08;64.58;100035.58;2058531;86;29118;-78
2022/06/30 07:11:07;;;;;;;4.85;4.33;;;;;;;33.51;64.34;100035.16;2060409;86;27721;-76
2022/06/30 07:14:09;;;;;;;8.95;4.97;;;;;;;33.71;63.26;100025.14;2060468;86;29224;-77
2022/06/30 07:17:10;;;;;;;7.58;5.37;;;;;;;34.08;62.80;100028.67;2060376;86;31874;-77
2022/06/30 07:20:11;;;;;;;5.10;4.35;;;;;;;34.41;57.76;100016.66;2060668;86;32960;-75
2022/06/30 07:23:13;;;;;;;4.87;4.40;;;;;;;34.42;59.63;100030.07;2060615;86;29028;-80
2022/06/30 07:26:14;;;;;;;4.97;4.55;;;;;;;34.60;58.01;100024.36;2060898;86;27649;-77
2022/06/30 07:29:16;;;;;;;6.83;4.62;;;;;;;34.83;58.23;100023.48;2060543;86;28633;-81
2022/06/30 07:32:17;;;;;;;7.00;4.75;;;;;;;35.10;56.15;100020.21;2060019;86;31860;-79
2022/06/30 07:35:19;;;;;;;6.83;5.17;;;;;;;34.84;53.93;100014.61;2060242;86;33092;-79
2022/06/30 07:38:21;;;;;;;5.55;5.05;;;;;;;34.46;54.71;100013.18;2060190;86;29065;-78
2022/06/30 07:41:24;;;;;;;5.53;5.03;;;;;;;34.31;53.34;100012.25;2060362;86;27669;-78
2022/06/30 07:44:26;;;;;;;6.05;5.03;;;;;;;34.37;53.13;100014.91;2060267;86;29547;-77
2022/06/30 07:47:27;;;;;;;6.28;4.30;;;;;;;34.34;50.46;100013.14;2060134;86;31021;-79
2022/06/30 07:50:29;;;;;;;6.55;5.12;;;;;;;34.09;52.03;100029.52;2060328;86;32952;-77
2022/06/30 07:53:31;;;;;;;6.00;5.40;;;;;;;34.17;52.85;100040.27;2060239;86;29208;-77
2022/06/30 07:56:32;;;;;;;7.00;5.40;;;;;;;34.61;52.29;100043.30;2060288;86;27644;-77
2022/06/30 07:59:34;;;;;;;5.90;5.40;;;;;;;34.81;50.79;100035.96;2060082;86;28818;-75
2022/06/30 08:02:36;;;;;;;7.67;5.20;;;;;;;35.01;51.02;100033.36;2059860;86;31345;-77
2022/06/30 08:05:37;;;;;;;6.33;5.72;;;;;;;35.16;50.00;100037.03;2060020;86;33128;-76
2022/06/30 08:08:40;;;;;;;6.60;5.95;;;;;;;35.47;49.97;100039.08;2059731;86;29068;-75
2022/06/30 08:11:42;;;;;;;7.57;5.77;;;;;;;35.72;49.93;100038.72;2062184;86;27629;-77
2022/06/30 08:14:43;;;;;;;7.62;6.85;;;;;;;35.86;49.00;100030.34;2060131;86;28629;-77
2022/06/30 08:17:45;;;;;;;6.97;6.28;;;;;;;36.01;47.66;100033.95;2060065;86;32084;-75
2022/06/30 08:20:47;;;;;;;8.28;6.90;;;;;;;35.96;47.46;100021.88;2059976;86;32967;-75
2022/06/30 08:23:48;;;;;;;7.75;6.65;;;;;;;36.00;46.77;100019.72;2060219;86;29182;-74
2022/06/30 08:26:51;;;;;;;6.62;6.03;;;;;;;35.63;46.39;100010.41;2060186;86;27703;-74
2022/06/30 08:29:53;;;;;;;9.70;6.15;;;;;;;35.57;46.62;100012.27;2060259;86;28689;-74
2022/06/30 08:32:55;;;;;;;7.10;6.40;;;;;;;35.57;45.46;100009.48;2052903;86;31033;-75
2022/06/30 08:35:57;;;;;;;7.87;7.17;;;;;;;35.62;45.16;100005.07;2043985;87;32990;-74
2022/06/30 08:38:58;;;;;;;7.95;7.15;;;;;;;35.62;46.33;100008.72;2049909;86;29798;-74
2022/06/30 08:42:03;;;;;;;11.57;7.22;;;;;;;35.76;46.20;100010.63;2053604;86;28139;-74
2022/06/30 08:45:17;;;;;;;12.90;8.08;;;;;;;35.89;46.02;99999.70;2053444;86;28845;-73
2022/06/30 08:48:18;;;;;;;9.90;7.92;;;;;;;36.00;44.52;100006.34;2053803;86;31026;-73
2022/06/30 08:51:21;;;;;;;8.73;7.92;;;;;;;35.83;44.94;100000.17;2053451;86;32941;-73
2022/06/30 08:54:25;;;;;;;8.83;7.95;;;;;;;35.95;44.72;100002.06;2053463;86;29031;-71
2022/06/30 08:57:27;;;;;;;;;;;;;;;35.97;45.52;99997.08;2055897;86;27760;-72
2022/06/30 09:00:31;;;;;;;9.65;8.78;;;;;;;36.12;45.12;99993.72;2074456;85;28701;-72
2022/06/30 09:03:34;;;;;;;10.72;9.48;;;;;;;36.04;44.22;99986.62;2074735;85;31016;-72
2022/06/30 09:06:36;;;;;;;;;;;;;;;35.88;44.17;99984.94;2063422;85;33760;-72
2022/06/30 09:09:38;;;;;;;10.23;9.23;;;;;;;35.74;44.66;99989.16;2069042;85;29242;-72
2022/06/30 09:12:41;;;;;;;10.32;8.68;;;;;;;35.67;44.16;99986.50;2046253;86;27717;-71
2022/06/30 09:15:43;;;;;;;16.50;9.83;;;;;;;35.68;44.09;99986.80;2046137;86;28653;-71
2022/06/30 09:18:45;;;;;;;10.48;9.35;;;;;;;35.47;43.34;99986.14;2045849;86;31231;-71
2022/06/30 09:22:06;;;;;;;12.47;9.45;;;;;;;35.38;43.84;99987.06;2045881;87;33731;-71
2022/06/30 09:25:15;;;;;;;13.13;9.35;;;;;;;35.08;43.37;99989.54;2046166;87;29183;-72
2022/06/30 09:28:23;;;;;;;10.60;9.63;;;;;;;34.91;43.93;99979.67;2046205;86;27728;-72
2022/06/30 09:31:35;;;;;;;14.75;10.93;;;;;;;34.75;44.43;99984.91;2041342;86;28656;-71
2022/06/30 09:34:38;;;;;;;10.85;9.85;;;;;;;34.63;44.63;99986.88;2055303;84;31243;-70
2022/06/30 09:37:40;;;;;;;11.68;10.68;;;;;;;34.58;44.84;99995.09;2055352;86;33145;-70
2022/06/30 09:41:04;;;;;;;11.57;10.50;;;;;;;34.61;44.21;99994.62;2028035;87;29815;-71
2022/06/30 09:44:21;;;;;;;13.60;10.08;;;;;;;34.38;43.94;99992.11;2053909;86;27697;-71
2022/06/30 09:47:23;;;;;;;13.32;10.03;;;;;;;34.18;43.69;99982.18;2054122;86;28764;-71
2022/06/30 09:50:25;;;;;;;10.20;9.03;;;;;;;34.03;44.68;99977.11;2034334;87;30997;-73
2022/06/30 09:53:27;;;;;;;12.68;9.43;;;;;;;34.06;45.12;99979.94;2054449;86;32974;-72
2022/06/30 09:56:29;;;;;;;10.93;9.85;;;;;;;34.10;44.81;99977.00;2034345;87;29830;-74
2022/06/30 09:59:31;;;;;;;10.25;8.93;;;;;;;33.92;44.49;99973.78;2034306;87;27748;-71
2022/06/30 10:02:39;;;;;;;11.40;9.03;;;;;;;33.93;45.42;99969.36;2034166;87;28850;-72
2022/06/30 10:05:44;;;;;;;10.48;9.00;;;;;;;33.86;45.15;99967.19;2034236;87;31098;-71
2022/06/30 10:08:45;;;;;;;11.00;9.98;;;;;;;33.83;45.75;99972.39;2033706;87;33253;-70
2022/06/30 10:11:50;;;;;;;10.30;9.28;;;;;;;33.86;45.68;99972.75;1946052;91;27811;-72
2022/06/30 10:14:53;;;;;;;9.63;8.73;;;;;;;33.76;45.43;99965.55;1946525;91;27690;-72
2022/06/30 10:17:55;;;;;;;9.93;8.95;;;;;;;33.55;45.11;99965.56;1946043;91;32865;-71
2022/06/30 10:20:58;;;;;;;11.70;9.18;;;;;;;33.42;45.41;99954.97;1946292;91;31154;-71
2022/06/30 10:24:00;;;;;;;11.22;9.73;;;;;;;33.30;45.69;99953.50;1946085;91;33788;-72
2022/06/30 10:27:14;;;;;;;9.55;8.53;;;;;;;33.21;45.78;99961.00;1946289;91;29099;-71
2022/06/30 10:30:21;;;;;;;11.50;7.83;;;;;;;33.13;45.96;99951.07;1946293;91;27779;-72
2022/06/30 10:33:54;;;;;;;9.78;8.83;;;;;;;33.03;45.60;99947.47;1958235;89;28213;-72
2022/06/30 10:37:07;;;;;;;10.10;8.15;;;;;;;32.95;46.03;99942.22;1974350;89;31170;-72
2022/06/30 10:40:26;;;;;;;9.85;8.20;;;;;;;32.91;45.83;99942.40;1971171;90;33693;-71
2022/06/30 10:43:27;;;;;;;9.83;8.83;;;;;;;32.58;44.90;99942.55;1969867;90;29032;-71
2022/06/30 10:46:59;;;;;;;8.65;7.85;;;;;;;32.45;45.96;99946.83;1963910;90;27785;-70
2022/06/30 10:49:56;;;;;;;10.50;9.30;;;;;;;32.43;46.42;99949.84;2036759;85;28677;-70
2022/06/30 10:52:58;;;;;;;10.08;8.53;;;;;;;32.31;46.05;99946.14;2072203;85;31935;-71
2022/06/30 10:55:59;;;;;;;10.50;8.03;;;;;;;32.22;45.74;99937.76;2045101;85;32997;-71
2022/06/30 10:59:10;;;;;;;9.25;8.40;;;;;;;32.07;45.80;99933.98;2072096;85;29013;-74
2022/06/30 11:02:17;;;;;;;11.60;7.72;;;;;;;31.96;45.96;99932.80;2072151;85;27642;-74
2022/06/30 11:05:27;;;;;;;8.90;7.85;;;;;;;31.92;46.40;99935.17;2072072;85;28833;-73
2022/06/30 11:08:57;;;;;;;10.90;7.75;;;;;;;31.83;45.33;99936.52;2051031;85;30464;-75
2022/06/30 11:11:46;;;;;;;11.95;7.15;;;;;;;31.63;45.92;99937.48;2000546;88;33372;-72
2022/06/30 11:14:56;;;;;;;9.18;7.70;;;;;;;31.43;45.82;99936.25;2055844;86;29300;-71
2022/06/30 11:17:59;;;;;;;8.18;7.35;;;;;;;31.39;46.87;99939.70;2026841;87;27703;-72
2022/06/30 11:21:01;;;;;;;8.48;7.58;;;;;;;31.25;45.90;99932.00;2026736;87;28664;-78
2022/06/30 11:24:03;;;;;;;10.50;6.92;;;;;;;31.19;46.93;99934.57;2026974;87;31032;-74
2022/06/30 11:27:18;;;;;;;9.05;7.30;;;;;;;31.25;47.07;99934.25;2026635;87;32996;-77
2022/06/30 11:30:20;;;;;;;9.38;8.45;;;;;;;31.36;47.09;99944.60;2026737;87;29279;-78
2022/06/30 11:33:22;;;;;;;8.75;6.90;;;;;;;31.37;46.54;99935.23;2026367;87;27790;-75
2022/06/30 11:36:23;;;;;;;8.98;8.08;;;;;;;31.41;46.81;99932.86;2025457;87;28711;-75
2022/06/30 11:39:26;;;;;;;6.83;6.22;;;;;;;31.48;47.23;99930.03;2062184;86;32038;-75
2022/06/30 11:42:28;;;;;;;9.75;6.67;;;;;;;31.60;47.09;99924.11;2065095;86;33610;-74
2022/06/30 11:45:30;;;;;;;8.33;6.75;;;;;;;31.74;46.95;99918.50;2065272;86;29774;-75
2022/06/30 11:48:31;;;;;;;7.35;6.65;;;;;;;31.85;46.99;99919.13;2065236;86;27689;-75
2022/06/30 11:51:33;;;;;;;9.98;7.55;;;;;;;31.94;46.88;99924.69;2065142;85;29601;-75
2022/06/30 11:54:34;;;;;;;10.00;7.92;;;;;;;32.02;47.11;99918.56;2065134;86;31018;-74
2022/06/30 11:57:39;;;;;;;8.13;7.35;;;;;;;32.07;46.67;99916.80;2065219;86;32990;-74
2022/06/30 12:00:42;;;;;;;8.20;7.35;;;;;;;32.06;46.52;99911.50;2064891;86;28927;-77
2022/06/30 12:03:44;;;;;;;8.43;7.73;;;;;;;32.07;46.58;99912.64;2065519;86;27725;-74
2022/06/30 12:06:46;;;;;;;11.18;7.58;;;;;;;32.03;45.39;99910.56;2059858;86;28826;-75
2022/06/30 12:09:49;;;;;;;8.23;7.42;;;;;;;31.83;45.36;99908.81;2025316;87;31141;-76
2022/06/30 12:12:52;;;;;;;6.05;5.55;;;;;;;31.80;46.49;99914.28;2025279;87;37311;-75
2022/06/30 12:15:55;;;;;;;8.15;7.05;;;;;;;31.84;46.38;99913.28;2025340;87;29059;-75
2022/06/30 12:18:57;;;;;;;8.58;7.17;;;;;;;31.88;46.80;99911.77;2025591;87;27781;-76
2022/06/30 12:21:59;;;;;;;10.18;7.40;;;;;;;31.83;45.98;99910.20;2025297;87;28624;-76
2022/06/30 12:25:01;;;;;;;10.65;7.28;;;;;;;31.72;45.28;99907.63;2004727;87;31210;-74
2022/06/30 12:28:03;;;;;;;6.80;5.92;;;;;;;31.61;45.78;99902.80;2025291;87;33742;-75
2022/06/30 12:31:05;;;;;;;8.50;7.10;;;;;;;31.62;46.12;99905.88;2025512;87;29207;-75
2022/06/30 12:34:07;;;;;;;8.73;7.80;;;;;;;31.63;45.96;99902.87;2026953;87;27876;-75
2022/06/30 12:37:08;;;;;;;8.30;7.50;;;;;;;31.68;46.38;99899.45;2039871;86;28720;-75
2022/06/30 12:40:13;;;;;;;7.87;7.08;;;;;;;31.71;45.99;99896.78;2070305;86;31853;-75
2022/06/30 12:43:18;;;;;;;8.05;7.10;;;;;;;31.74;45.89;99895.78;2070227;86;32982;-75
2022/06/30 12:46:20;;;;;;;7.50;6.80;;;;;;;31.75;45.95;99892.49;2070254;86;29032;-75
2022/06/30 12:49:23;;;;;;;8.78;7.03;;;;;;;31.76;45.87;99896.41;2070333;86;27760;-76
2022/06/30 12:52:25;;;;;;;7.50;6.53;;;;;;;31.77;45.90;99895.89;2070524;86;28649;-74
2022/06/30 12:55:26;;;;;;;7.15;6.50;;;;;;;31.76;45.20;99890.04;2047469;86;32026;-76
2022/06/30 12:58:50;;;;;;;7.00;6.30;;;;;;;31.71;44.03;99886.54;2070083;86;34022;-75
2022/06/30 13:02:02;;;;;;;6.22;5.60;;;;;;;31.59;43.72;99879.49;2070409;86;29073;-75
2022/06/30 13:05:04;;;;;;;7.00;5.75;;;;;;;31.55;44.41;99881.53;2070574;86;27596;-74
2022/06/30 13:08:06;;;;;;;8.03;6.25;;;;;;;31.59;43.76;99880.88;2044132;86;28716;-75
2022/06/30 13:11:08;;;;;;;7.22;4.90;;;;;;;31.62;44.04;99878.19;2030465;87;31195;-74
2022/06/30 13:14:11;;;;;;;6.90;6.22;;;;;;;31.66;43.82;99876.66;2030429;87;32983;-75
2022/06/30 13:17:13;;;;;;;6.72;5.87;;;;;;;31.65;43.00;99874.97;2030269;87;28726;-78
2022/06/30 13:20:14;;;;;;;6.22;5.42;;;;;;;31.64;43.50;99870.50;2044914;87;27746;-76
2022/06/30 13:23:16;;;;;;;6.50;5.55;;;;;;;31.66;43.42;99871.13;2063634;85;28829;-78
2022/06/30 13:26:18;;;;;;;5.72;5.22;;;;;;;31.63;43.38;99868.80;2103416;84;30487;-77
2022/06/30 13:29:20;;;;;;;6.15;5.42;;;;;;;31.59;43.62;99862.88;2103633;84;33771;-76
2022/06/30 13:32:21;;;;;;;7.15;6.35;;;;;;;31.62;43.39;99865.17;2103685;84;28596;-77
2022/06/30 13:35:23;;;;;;;10.25;5.62;;;;;;;31.63;43.43;99864.09;2099201;84;27693;-76
2022/06/30 13:38:25;;;;;;;7.40;5.28;;;;;;;31.66;43.68;99858.11;2097569;84;29523;-78
2022/06/30 13:41:27;;;;;;;8.75;4.85;;;;;;;31.71;43.44;99858.84;2097581;84;31021;-78
2022/06/30 13:44:29;;;;;;;9.10;5.78;;;;;;;31.73;43.57;99857.25;2097534;84;32973;-76
2022/06/30 13:47:31;;;;;;;7.53;5.72;;;;;;;31.75;43.16;99858.70;2097606;84;29801;-77
2022/06/30 13:50:32;;;;;;;6.42;5.83;;;;;;;31.63;42.47;99835.02;2097541;84;27775;-76
2022/06/30 13:53:34;;;;;;;7.92;4.97;;;;;;;31.68;42.38;99839.91;2074787;84;29542;-77
2022/06/30 13:56:36;;;;;;;8.28;5.90;;;;;;;31.68;42.69;99845.44;2055414;86;31089;-77
2022/06/30 13:59:38;;;;;;;7.28;5.47;;;;;;;31.68;43.02;99848.21;2055662;86;32936;-77
2022/06/30 14:02:39;;;;;;;10.95;6.12;;;;;;;31.69;43.18;99844.34;2055768;86;29814;-76
2022/06/30 14:05:41;;;;;;;7.20;6.50;;;;;;;31.68;42.87;99837.97;2055711;86;27806;-77
2022/06/30 14:08:43;;;;;;;5.75;5.25;;;;;;;31.71;43.25;99838.07;2055740;86;28056;-77
2022/06/30 14:11:47;;;;;;;5.50;4.92;;;;;;;31.71;42.29;99837.23;2055601;86;31029;-77
2022/06/30 14:14:48;;;;;;;7.33;6.42;;;;;;;31.63;42.39;99840.56;2055786;86;33221;-78
2022/06/30 14:17:50;;;;;;;10.25;6.62;;;;;;;31.59;42.83;99844.02;2055807;86;29851;-77
2022/06/30 14:20:52;;;;;;;4.67;4.28;;;;;;;31.59;42.52;99838.48;2055773;86;27760;-77
2022/06/30 14:23:54;;;;;;;6.15;5.47;;;;;;;31.57;42.41;99840.63;2081920;84;28861;-76
2022/06/30 14:26:56;;;;;;;6.75;6.10;;;;;;;31.54;42.29;99848.86;2097518;84;31070;-76
2022/06/30 14:29:58;;;;;;;6.70;6.12;;;;;;;31.49;41.80;99834.83;2097340;84;33124;-76
2022/06/30 14:33:03;;;;;;;7.40;5.83;;;;;;;31.45;41.83;99846.91;2097434;84;29240;-77
2022/06/30 14:36:05;;;;;;;7.00;5.92;;;;;;;31.46;42.52;99839.43;2097505;84;27808;-76